createdAt,value
2023-05-14T00:02:21.193Z,60.03
2023-05-14T00:04:53.199Z,60.27
2023-05-14T00:07:19.975Z,60.38
2023-05-14T00:09:50.438Z,60.44
2023-05-14T00:12:17.130Z,60.37
2023-05-14T00:14:43.899Z,60.61
2023-05-14T00:17:10.886Z,60.87
2023-05-14T00:19:37.666Z,60.90
2023-05-14T00:22:07.335Z,60.85
2023-05-14T00:24:34.046Z,60.88
2023-05-14T00:27:00.726Z,61.31
2023-05-14T00:29:27.452Z,61.44
2023-05-14T00:31:54.161Z,61.42
2023-05-14T00:34:21.027Z,61.41
2023-05-14T00:36:47.924Z,61.53
2023-05-14T00:39:15.993Z,61.81
2023-05-14T00:41:43.084Z,61.95
2023-05-14T00:44:10.195Z,61.51
2023-05-14T00:46:37.074Z,61.79
2023-05-14T00:49:03.940Z,61.99
2023-05-14T00:51:31.275Z,61.75
2023-05-14T00:54:00.672Z,62.18
2023-05-14T00:56:29.178Z,62.16
2023-05-14T00:59:24.461Z,62.11
2023-05-14T01:01:51.238Z,62.18
2023-05-14T01:04:18.309Z,62.45
2023-05-14T01:06:52.292Z,62.27
2023-05-14T01:09:26.904Z,62.50
2023-05-14T01:12:01.412Z,62.60
2023-05-14T01:14:37.433Z,62.60
2023-05-14T01:17:06.379Z,62.71
2023-05-14T01:19:41.364Z,62.60
2023-05-14T01:22:10.819Z,62.86
2023-05-14T01:24:37.654Z,62.87
2023-05-14T01:27:19.825Z,62.60
2023-05-14T01:29:52.158Z,62.70
2023-05-14T01:32:23.614Z,62.94
2023-05-14T01:34:50.980Z,62.86
2023-05-14T01:37:19.270Z,63.12
2023-05-14T01:39:51.972Z,63.19
2023-05-14T01:42:18.648Z,63.46
2023-05-14T01:44:45.439Z,63.33
2023-05-14T01:47:12.286Z,63.72
2023-05-14T01:49:40.475Z,63.38
2023-05-14T01:52:08.548Z,63.58
2023-05-14T01:54:36.573Z,63.79
2023-05-14T01:57:03.540Z,63.83
2023-05-14T01:59:30.157Z,63.89
2023-05-14T02:01:56.905Z,63.85
2023-05-14T02:04:23.720Z,63.64
2023-05-14T02:06:50.462Z,63.75
2023-05-14T02:09:17.149Z,63.94
2023-05-14T02:11:45.394Z,63.77
2023-05-14T02:14:12.203Z,64.04
2023-05-14T02:16:38.885Z,64.23
2023-05-14T02:19:05.657Z,64.20
2023-05-14T02:21:34.850Z,64.52
2023-05-14T02:24:01.613Z,64.66
2023-05-14T02:26:28.385Z,64.82
2023-05-14T02:28:56.962Z,64.58
2023-05-14T02:31:24.351Z,64.69
2023-05-14T02:33:51.492Z,64.99
2023-05-14T02:36:18.377Z,64.94
2023-05-14T02:38:45.591Z,64.85
2023-05-14T02:41:12.349Z,65.46
2023-05-14T02:43:39.094Z,65.05
2023-05-14T02:46:07.272Z,65.52
2023-05-14T02:48:34.018Z,65.79
2023-05-14T02:51:00.836Z,65.60
2023-05-14T02:53:27.620Z,65.87
2023-05-14T02:55:54.326Z,65.62
2023-05-14T02:58:25.769Z,65.83
2023-05-14T03:00:59.434Z,65.84
2023-05-14T03:03:29.647Z,65.83
2023-05-14T03:05:56.879Z,66.30
2023-05-14T03:08:24.872Z,65.89
2023-05-14T03:10:51.686Z,66.12
2023-05-14T03:13:20.800Z,66.33
2023-05-14T03:15:47.769Z,66.51
2023-05-14T03:18:15.382Z,66.32
2023-05-14T03:20:43.533Z,66.44
2023-05-14T03:23:11.063Z,66.62
2023-05-14T03:25:37.974Z,66.69
2023-05-14T03:28:04.990Z,66.72
2023-05-14T03:30:32.056Z,66.98
2023-05-14T03:32:59.097Z,66.86
2023-05-14T03:35:25.952Z,66.66
2023-05-14T03:37:54.101Z,67.10
2023-05-14T03:40:21.513Z,66.96
2023-05-14T03:42:48.598Z,67.36
2023-05-14T03:45:15.359Z,67.22
2023-05-14T03:47:42.214Z,67.37
2023-05-14T03:50:09.346Z,67.16
2023-05-14T03:52:36.218Z,67.36
2023-05-14T03:55:05.112Z,67.23
2023-05-14T03:57:31.875Z,67.71
2023-05-14T03:59:58.756Z,67.45
2023-05-14T04:02:25.513Z,67.52
2023-05-14T04:04:52.339Z,67.56
2023-05-14T04:07:19.211Z,67.65
2023-05-14T04:09:46.205Z,67.90
2023-05-14T04:12:14.242Z,67.76
2023-05-14T04:14:41.086Z,68.13
2023-05-14T04:17:07.818Z,68.30
2023-05-14T04:19:34.896Z,68.40
2023-05-14T04:22:01.641Z,67.92
2023-05-14T04:24:28.469Z,68.29
2023-05-14T04:26:55.196Z,68.25
2023-05-14T04:29:23.233Z,68.25
2023-05-14T04:31:50.210Z,68.51
2023-05-14T04:34:17.087Z,69.18
2023-05-14T04:36:44.637Z,69.03
2023-05-14T04:39:12.471Z,69.29
2023-05-14T04:41:39.227Z,69.66
2023-05-14T04:44:06.038Z,69.91
2023-05-14T04:46:34.268Z,70.16
2023-05-14T04:49:01.381Z,70.36
2023-05-14T04:51:28.650Z,70.10
2023-05-14T04:53:55.580Z,70.12
2023-05-14T04:56:22.444Z,69.95
2023-05-14T04:58:49.259Z,70.27
2023-05-14T05:01:16.874Z,69.96
2023-05-14T05:03:45.010Z,69.99
2023-05-14T05:06:11.885Z,69.96
2023-05-14T05:08:38.810Z,69.73
2023-05-14T05:11:05.757Z,69.92
2023-05-14T05:13:32.457Z,69.66
2023-05-14T05:15:59.473Z,69.70
2023-05-14T05:18:26.297Z,69.66
2023-05-14T05:20:56.960Z,69.70
2023-05-14T05:23:23.674Z,69.62
2023-05-14T05:25:51.107Z,69.55
2023-05-14T05:28:19.213Z,70.13
2023-05-14T05:30:46.013Z,69.74
2023-05-14T05:33:12.847Z,69.85
2023-05-14T05:35:39.657Z,70.20
2023-05-14T05:38:07.817Z,70.00
2023-05-14T05:40:34.694Z,70.18
2023-05-14T05:43:01.598Z,69.84
2023-05-14T05:45:28.390Z,69.73
2023-05-14T05:47:55.344Z,69.77
2023-05-14T05:50:22.878Z,69.87
2023-05-14T05:52:49.798Z,70.05
2023-05-14T05:55:18.071Z,70.26
2023-05-14T05:57:44.840Z,70.05
2023-05-14T06:00:15.282Z,70.02
2023-05-14T06:02:42.333Z,69.94
2023-05-14T06:05:10.823Z,70.01
2023-05-14T06:07:37.685Z,70.07
2023-05-14T06:10:06.528Z,71.24
2023-05-14T06:12:34.750Z,71.23
2023-05-14T06:15:01.486Z,71.16
2023-05-14T06:17:28.330Z,71.22
2023-05-14T06:19:56.263Z,71.06
2023-05-14T06:22:23.409Z,70.99
2023-05-14T06:24:50.179Z,70.71
2023-05-14T06:27:17.283Z,70.82
2023-05-14T06:29:45.324Z,70.60
2023-05-14T06:32:15.519Z,70.32
2023-05-14T06:34:44.111Z,70.35
2023-05-14T06:37:12.345Z,70.06
2023-05-14T06:39:39.449Z,69.87
2023-05-14T06:42:07.470Z,70.06
2023-05-14T06:44:34.136Z,69.84
2023-05-14T06:47:02.207Z,70.02
2023-05-14T06:49:28.998Z,69.83
2023-05-14T06:51:55.762Z,69.79
2023-05-14T06:54:22.438Z,69.57
2023-05-14T06:56:49.283Z,69.57
2023-05-14T06:59:19.419Z,69.45
2023-05-14T07:01:47.713Z,69.34
2023-05-14T07:04:15.956Z,69.34
2023-05-14T07:06:42.737Z,68.74
2023-05-14T07:09:10.659Z,69.09
2023-05-14T07:11:37.375Z,68.97
2023-05-14T07:14:04.497Z,68.71
2023-05-14T07:16:31.278Z,68.60
2023-05-14T07:18:58.254Z,68.80
2023-05-14T07:21:26.472Z,68.68
2023-05-14T07:23:53.116Z,68.80
2023-05-14T07:26:19.890Z,68.57
2023-05-14T07:28:46.611Z,68.50
2023-05-14T07:31:13.392Z,68.17
2023-05-14T07:33:40.083Z,68.22
2023-05-14T07:36:07.827Z,67.83
2023-05-14T07:38:36.205Z,67.96
2023-05-14T07:41:03.021Z,67.98
2023-05-14T07:43:29.921Z,68.30
2023-05-14T07:45:56.650Z,68.48
2023-05-14T07:48:23.438Z,68.15
2023-05-14T07:50:51.628Z,68.50
2023-05-14T07:53:18.565Z,68.12
2023-05-14T07:55:48.458Z,68.15
2023-05-14T07:58:16.114Z,67.71
2023-05-14T08:00:42.794Z,67.59
2023-05-14T08:03:09.845Z,67.63
2023-05-14T08:05:36.717Z,67.49
2023-05-14T08:08:03.664Z,67.25
2023-05-14T08:10:30.787Z,66.97
2023-05-14T08:12:58.857Z,66.98
2023-05-14T08:15:27.712Z,66.90
2023-05-14T08:17:54.942Z,66.34
2023-05-14T08:20:22.300Z,66.04
2023-05-14T08:22:49.491Z,65.82
2023-05-14T08:25:16.454Z,65.66
2023-05-14T08:27:43.731Z,65.53
2023-05-14T08:30:12.663Z,65.28
2023-05-14T08:32:42.031Z,65.09
2023-05-14T08:35:09.913Z,64.97
2023-05-14T08:37:36.845Z,65.16
2023-05-14T08:40:04.654Z,64.82
2023-05-14T08:42:32.047Z,64.76
2023-05-14T08:45:02.205Z,64.77
2023-05-14T08:47:31.482Z,64.42
2023-05-14T08:50:03.099Z,64.30
2023-05-14T08:52:30.465Z,64.38
2023-05-14T08:55:00.415Z,63.67
2023-05-14T08:57:28.657Z,63.65
2023-05-14T08:59:55.813Z,63.45
2023-05-14T09:02:25.009Z,62.88
2023-05-14T09:04:56.644Z,62.07
2023-05-14T09:07:23.886Z,62.31
2023-05-14T09:09:51.249Z,62.19
2023-05-14T09:12:18.067Z,62.09
2023-05-14T09:14:45.805Z,61.96
2023-05-14T09:17:12.846Z,61.23
2023-05-14T09:19:40.592Z,60.56
2023-05-14T09:22:11.978Z,59.01
2023-05-14T09:24:40.178Z,57.05
2023-05-14T09:27:07.582Z,57.29
2023-05-14T09:29:34.402Z,57.58
2023-05-14T09:32:07.943Z,57.99
2023-05-14T09:34:38.378Z,57.90
2023-05-14T09:37:06.845Z,58.16
2023-05-14T09:39:39.223Z,57.58
2023-05-14T09:42:06.815Z,56.34
2023-05-14T09:44:33.606Z,56.61
2023-05-14T09:47:02.036Z,56.83
2023-05-14T09:49:28.764Z,57.08
2023-05-14T09:51:58.786Z,57.28
2023-05-14T09:54:27.428Z,56.01
2023-05-14T09:56:56.028Z,55.05
2023-05-14T09:59:23.237Z,53.55
2023-05-14T10:01:54.236Z,53.52
2023-05-14T10:04:23.372Z,53.49
2023-05-14T10:06:53.705Z,53.74
2023-05-14T10:09:26.314Z,54.18
2023-05-14T10:11:59.079Z,54.01
2023-05-14T10:14:33.997Z,54.20
2023-05-14T10:17:03.216Z,53.74
2023-05-14T10:19:36.951Z,53.90
2023-05-14T10:22:08.074Z,53.43
2023-05-14T10:24:40.293Z,53.01
2023-05-14T10:27:08.646Z,52.87
2023-05-14T10:29:46.096Z,53.09
2023-05-14T10:34:46.283Z,52.56
2023-05-14T10:37:16.708Z,52.12
2023-05-14T10:39:47.145Z,51.79
2023-05-14T10:42:23.360Z,52.08
2023-05-14T10:45:07.592Z,52.00
2023-05-14T10:47:36.872Z,52.03
2023-05-14T10:50:07.029Z,51.68
2023-05-14T10:52:39.842Z,51.96
2023-05-14T10:55:12.955Z,51.84
2023-05-14T10:57:46.759Z,51.78
2023-05-14T11:00:15.153Z,51.96
2023-05-14T11:02:44.027Z,52.13
2023-05-14T11:05:14.396Z,52.21
2023-05-14T11:07:43.295Z,52.41
2023-05-14T11:10:11.859Z,52.64
2023-05-14T11:12:42.023Z,52.38
2023-05-14T11:15:11.086Z,52.69
2023-05-14T11:17:40.608Z,52.76
2023-05-14T11:20:10.869Z,52.70
2023-05-14T11:22:39.904Z,52.66
2023-05-14T11:25:09.060Z,52.54
2023-05-14T11:27:38.368Z,52.69
2023-05-14T11:30:13.577Z,52.60
2023-05-14T11:32:42.497Z,52.70
2023-05-14T11:37:52.992Z,53.07
2023-05-14T11:40:22.150Z,53.19
2023-05-14T11:42:51.710Z,53.53
2023-05-14T11:45:30.003Z,53.46
2023-05-14T11:47:59.515Z,53.57
2023-05-14T11:50:28.142Z,53.71
2023-05-14T11:52:57.144Z,53.86
2023-05-14T11:55:25.549Z,53.67
2023-05-14T11:57:55.506Z,53.81
2023-05-14T12:00:26.475Z,53.91
2023-05-14T12:02:57.874Z,53.88
2023-05-14T12:05:26.227Z,53.78
2023-05-14T12:07:53.191Z,53.77
2023-05-14T12:10:21.403Z,53.46
2023-05-14T12:12:52.698Z,53.05
2023-05-14T12:15:25.421Z,53.07
2023-05-14T12:17:53.914Z,53.08
2023-05-14T12:20:26.473Z,52.84
2023-05-14T12:22:54.996Z,53.05
2023-05-14T12:25:21.768Z,52.82
2023-05-14T12:27:48.770Z,52.90
2023-05-14T12:30:21.953Z,52.68
2023-05-14T12:32:53.988Z,52.11
2023-05-14T12:35:23.000Z,52.06
2023-05-14T12:37:50.449Z,52.02
2023-05-14T12:40:20.050Z,52.10
2023-05-14T12:42:48.765Z,52.36
2023-05-14T12:45:17.432Z,52.46
2023-05-14T12:47:44.674Z,52.13
2023-05-14T12:50:13.667Z,52.15
2023-05-14T12:52:44.120Z,52.48
2023-05-14T12:55:12.718Z,52.22
2023-05-14T12:57:39.814Z,52.27
2023-05-14T13:00:14.201Z,51.98
2023-05-14T13:02:49.795Z,52.26
2023-05-14T13:05:18.203Z,52.54
2023-05-14T13:07:46.646Z,52.65
2023-05-14T13:10:13.443Z,52.54
2023-05-14T13:12:40.589Z,52.54
2023-05-14T13:15:09.017Z,52.40
2023-05-14T13:17:36.565Z,52.58
2023-05-14T13:20:04.850Z,52.45
2023-05-14T13:22:31.919Z,52.00
2023-05-14T13:25:00.279Z,51.82
2023-05-14T13:27:27.865Z,51.36
2023-05-14T13:29:56.079Z,51.09
2023-05-14T13:32:24.055Z,50.81
2023-05-14T13:34:52.254Z,50.65
2023-05-14T13:37:20.850Z,50.49
2023-05-14T13:39:49.489Z,50.63
2023-05-14T13:42:20.497Z,50.17
2023-05-14T13:44:50.321Z,49.93
2023-05-14T13:47:17.276Z,49.86
2023-05-14T13:49:44.098Z,50.18
2023-05-14T13:52:12.315Z,50.29
2023-05-14T13:54:40.345Z,50.42
2023-05-14T13:57:07.679Z,50.45
2023-05-14T13:59:36.670Z,50.21
2023-05-14T14:02:05.001Z,50.36
2023-05-14T14:04:32.467Z,50.15
2023-05-14T14:06:59.438Z,50.30
2023-05-14T14:09:26.254Z,50.30
2023-05-14T14:11:53.506Z,50.40
2023-05-14T14:14:22.951Z,50.74
2023-05-14T14:16:52.282Z,50.86
2023-05-14T14:19:19.755Z,50.97
2023-05-14T14:21:48.428Z,51.00
2023-05-14T14:24:17.328Z,50.60
2023-05-14T14:26:44.298Z,50.65
2023-05-14T14:29:11.616Z,50.94
2023-05-14T14:31:39.040Z,50.74
2023-05-14T14:34:09.517Z,50.87
2023-05-14T14:36:36.917Z,51.02
2023-05-14T14:39:05.048Z,51.04
2023-05-14T14:41:34.256Z,51.33
2023-05-14T14:44:05.238Z,51.33
2023-05-14T14:46:32.400Z,51.26
2023-05-14T14:49:00.649Z,51.34
2023-05-14T14:51:30.320Z,51.64
2023-05-14T14:53:58.214Z,51.55
2023-05-14T14:56:25.201Z,51.85
2023-05-14T14:58:52.199Z,51.91
2023-05-14T15:01:19.275Z,51.90
2023-05-14T15:03:48.435Z,52.04
2023-05-14T15:06:15.777Z,51.94
2023-05-14T15:08:44.326Z,52.15
2023-05-14T15:11:11.372Z,52.19
2023-05-14T15:13:40.164Z,52.08
2023-05-14T15:16:09.387Z,52.43
2023-05-14T15:18:37.907Z,52.29
2023-05-14T15:21:05.085Z,52.42
2023-05-14T15:23:31.848Z,52.05
2023-05-14T15:26:02.821Z,51.97
2023-05-14T15:28:29.561Z,51.98
2023-05-14T15:30:56.648Z,52.10
2023-05-14T15:33:26.657Z,51.95
2023-05-14T15:35:53.823Z,51.78
2023-05-14T15:38:24.260Z,51.91
2023-05-14T15:40:54.175Z,51.32
2023-05-14T15:43:22.864Z,51.03
2023-05-14T15:45:50.686Z,50.98
2023-05-14T15:48:18.079Z,49.86
2023-05-14T15:50:44.943Z,50.13
2023-05-14T15:53:11.923Z,49.88
2023-05-14T15:55:38.690Z,49.84
2023-05-14T15:58:06.351Z,50.25
2023-05-14T16:00:34.450Z,50.67
2023-05-14T16:03:01.832Z,50.93
2023-05-14T16:05:29.823Z,51.25
2023-05-14T16:07:58.128Z,51.08
2023-05-14T16:10:25.227Z,51.56
2023-05-14T16:12:52.269Z,51.86
2023-05-14T16:15:19.372Z,51.92
2023-05-14T16:17:47.563Z,51.98
2023-05-14T16:20:16.048Z,51.61
2023-05-14T16:22:42.755Z,51.54
2023-05-14T16:25:11.021Z,51.47
2023-05-14T16:27:40.214Z,50.30
2023-05-14T16:30:10.103Z,49.11
2023-05-14T16:32:37.449Z,48.49
2023-05-14T16:35:06.749Z,48.74
2023-05-14T16:37:33.465Z,48.71
2023-05-14T16:40:00.587Z,48.38
2023-05-14T16:42:30.374Z,48.26
2023-05-14T16:44:57.177Z,48.42
2023-05-14T16:47:24.282Z,48.72
2023-05-14T16:49:52.321Z,48.76
2023-05-14T16:52:23.422Z,49.36
2023-05-14T16:54:50.600Z,49.34
2023-05-14T16:57:17.568Z,49.49
2023-05-14T16:59:46.325Z,49.65
2023-05-14T17:02:14.574Z,49.83
2023-05-14T17:04:43.410Z,50.36
2023-05-14T17:07:10.646Z,50.46
2023-05-14T17:09:39.107Z,50.69
2023-05-14T17:12:11.262Z,50.59
2023-05-14T17:14:39.219Z,50.58
2023-05-14T17:17:06.470Z,50.41
2023-05-14T17:19:33.262Z,50.30
2023-05-14T17:22:07.165Z,50.18
2023-05-14T17:24:36.848Z,50.10
2023-05-14T17:27:06.498Z,49.96
2023-05-14T17:29:33.752Z,49.87
2023-05-14T17:32:00.931Z,50.16
2023-05-14T17:34:27.971Z,50.51
2023-05-14T17:36:55.146Z,50.96
2023-05-14T17:39:22.813Z,51.77
2023-05-14T17:41:49.601Z,52.56
2023-05-14T17:44:18.879Z,53.15
2023-05-14T17:46:50.297Z,53.51
2023-05-14T17:49:17.880Z,53.85
2023-05-14T17:51:44.720Z,54.47
2023-05-14T17:54:11.489Z,55.62
2023-05-14T17:56:38.687Z,55.80
2023-05-14T17:59:07.467Z,56.58
2023-05-14T18:01:37.478Z,57.16
2023-05-14T18:04:11.377Z,57.41
2023-05-14T18:06:42.830Z,57.66
2023-05-14T18:09:10.530Z,58.70
2023-05-14T18:11:37.542Z,59.91
2023-05-14T18:14:04.533Z,60.60
2023-05-14T18:16:31.608Z,61.31
2023-05-14T18:19:03.721Z,61.93
2023-05-14T18:21:32.650Z,62.38
2023-05-14T18:24:07.518Z,62.56
2023-05-14T18:26:37.164Z,62.93
2023-05-14T18:29:07.513Z,63.74
2023-05-14T18:31:35.324Z,64.14
2023-05-14T18:34:05.845Z,64.46
2023-05-14T18:36:41.590Z,64.77
2023-05-14T18:39:09.247Z,65.17
2023-05-14T18:41:36.699Z,65.71
2023-05-14T18:44:04.100Z,65.79
2023-05-14T18:46:30.969Z,66.10
2023-05-14T18:49:00.166Z,66.74
2023-05-14T18:51:29.561Z,66.75
2023-05-14T18:53:56.505Z,66.95
2023-05-14T18:56:23.617Z,67.15
2023-05-14T18:58:52.124Z,67.25
2023-05-14T19:01:22.074Z,67.49
2023-05-14T19:03:49.142Z,67.67
2023-05-14T19:06:16.342Z,67.74
2023-05-14T19:08:47.048Z,67.89
2023-05-14T19:11:14.898Z,68.73
2023-05-14T19:13:44.854Z,68.94
2023-05-14T19:16:15.394Z,68.97
2023-05-14T19:18:43.144Z,69.30
2023-05-14T19:21:10.839Z,70.12
2023-05-14T19:23:38.536Z,70.31
2023-05-14T19:26:06.963Z,70.86
2023-05-14T19:28:34.079Z,71.39
2023-05-14T19:31:02.018Z,71.18
2023-05-14T19:33:28.914Z,71.10
2023-05-14T19:35:59.399Z,71.16
2023-05-14T19:38:26.586Z,71.21
2023-05-14T19:41:05.482Z,71.47
2023-05-14T19:43:42.758Z,72.11
2023-05-14T19:46:09.640Z,72.30
2023-05-14T19:48:36.890Z,72.47
2023-05-14T19:51:13.839Z,72.51
2023-05-14T19:53:41.184Z,72.33
2023-05-14T19:56:11.683Z,72.19
2023-05-14T19:58:44.176Z,72.32
2023-05-14T20:01:14.803Z,72.10
2023-05-14T20:03:45.027Z,72.84
2023-05-14T20:06:13.465Z,72.86
2023-05-14T20:08:48.978Z,72.55
2023-05-14T20:11:20.215Z,72.33
2023-05-14T20:13:51.018Z,72.61
2023-05-14T20:16:24.881Z,73.10
2023-05-14T20:18:53.919Z,73.27
2023-05-14T20:21:21.874Z,73.11
2023-05-14T20:23:50.059Z,73.28
2023-05-14T20:26:20.355Z,73.89
2023-05-14T20:28:50.682Z,73.84
2023-05-14T20:31:19.534Z,74.15
2023-05-14T20:33:48.351Z,74.29
2023-05-14T20:36:16.087Z,74.32
2023-05-14T20:38:43.042Z,74.46
2023-05-14T20:41:16.415Z,74.18
2023-05-14T20:43:47.188Z,74.45
2023-05-14T20:46:15.417Z,74.64
2023-05-14T20:48:44.160Z,74.86
2023-05-14T20:51:12.121Z,75.25
2023-05-14T20:53:39.204Z,75.15
2023-05-14T20:56:09.167Z,75.53
2023-05-14T20:58:36.856Z,75.89
2023-05-14T21:01:05.101Z,76.04
2023-05-14T21:03:33.091Z,75.80
2023-05-14T21:06:10.495Z,75.93
2023-05-14T21:08:40.751Z,75.81
2023-05-14T21:11:09.020Z,75.78
2023-05-14T21:13:36.074Z,75.81
2023-05-14T21:16:03.531Z,75.90
2023-05-14T21:18:33.082Z,75.42
2023-05-14T21:21:01.192Z,75.11
2023-05-14T21:23:28.179Z,75.27
2023-05-14T21:25:55.120Z,75.16
2023-05-14T21:28:22.559Z,75.00
2023-05-14T21:30:50.636Z,75.17
2023-05-14T21:33:18.661Z,75.04
2023-05-14T21:35:45.453Z,75.03
2023-05-14T21:38:14.771Z,75.04
2023-05-14T21:40:41.602Z,75.08
2023-05-14T21:43:08.395Z,74.85
2023-05-14T21:45:36.984Z,74.60
2023-05-14T21:48:04.398Z,74.78
2023-05-14T21:50:31.235Z,74.52
2023-05-14T21:52:58.006Z,74.45
2023-05-14T21:55:27.676Z,75.05
2023-05-14T21:57:55.113Z,75.03
2023-05-14T22:00:24.409Z,74.95
2023-05-14T22:02:53.353Z,74.90
2023-05-14T22:05:32.227Z,75.32
2023-05-14T22:07:59.319Z,75.48
2023-05-14T22:10:27.424Z,75.92
2023-05-14T22:12:54.219Z,76.11
2023-05-14T22:15:20.991Z,76.15
2023-05-14T22:17:48.205Z,76.23
2023-05-14T22:20:16.426Z,76.51
2023-05-14T22:22:43.182Z,76.59
2023-05-14T22:25:10.488Z,76.67
2023-05-14T22:27:38.910Z,76.54
2023-05-14T22:30:07.141Z,76.83
2023-05-14T22:32:33.924Z,76.52
2023-05-14T22:35:00.722Z,76.39
2023-05-14T22:37:27.595Z,76.13
2023-05-14T22:39:54.404Z,75.88
2023-05-14T22:42:21.149Z,75.73
2023-05-14T22:44:49.220Z,76.14
2023-05-14T22:47:16.632Z,76.17
2023-05-14T22:49:43.707Z,76.00
2023-05-14T22:52:10.638Z,76.28
2023-05-14T22:54:37.402Z,75.54
2023-05-14T22:57:04.846Z,76.08
2023-05-14T22:59:31.719Z,75.91
2023-05-14T23:01:59.792Z,75.61
2023-05-14T23:04:27.898Z,75.62
2023-05-14T23:06:54.753Z,75.28
2023-05-14T23:09:40.330Z,75.52
2023-05-14T23:12:07.814Z,75.45
2023-05-14T23:14:34.524Z,75.51
2023-05-14T23:17:02.600Z,75.76
2023-05-14T23:19:29.668Z,76.08
2023-05-14T23:21:58.294Z,76.56
2023-05-14T23:24:26.173Z,76.70
2023-05-14T23:26:52.993Z,77.32
2023-05-14T23:29:19.696Z,77.15
2023-05-14T23:31:46.560Z,77.21
2023-05-14T23:34:14.762Z,77.27
2023-05-14T23:36:41.944Z,77.31
2023-05-14T23:39:08.674Z,77.43
2023-05-14T23:41:35.431Z,77.57
2023-05-14T23:44:02.375Z,77.75
2023-05-14T23:46:29.477Z,77.52
2023-05-14T23:48:57.197Z,77.67
2023-05-14T23:51:28.520Z,77.54
2023-05-14T23:53:58.453Z,77.34
2023-05-14T23:56:26.200Z,77.45
2023-05-14T23:58:53.367Z,77.58
